createdAt,value
2022-10-06T00:01:19.742Z,95.37
2022-10-06T00:03:47.367Z,95.92
2022-10-06T00:06:17.443Z,96.23
2022-10-06T00:08:46.295Z,97.61
2022-10-06T00:11:16.293Z,96.97
2022-10-06T00:13:45.844Z,96.27
2022-10-06T00:16:15.876Z,95.20
2022-10-06T00:18:45.786Z,95.06
2022-10-06T00:21:13.708Z,96.00
2022-10-06T00:23:41.334Z,97.01
2022-10-06T00:26:11.484Z,95.53
2022-10-06T00:28:39.475Z,96.63
2022-10-06T00:31:08.658Z,95.81
2022-10-06T00:33:36.341Z,95.84
2022-10-06T00:36:04.711Z,95.62
2022-10-06T00:38:32.696Z,96.66
2022-10-06T00:41:00.794Z,96.70
2022-10-06T00:43:49.643Z,95.84
2022-10-06T00:46:24.782Z,95.45
2022-10-06T00:48:57.943Z,96.63
2022-10-06T00:51:29.213Z,98.58
2022-10-06T00:53:57.113Z,97.94
2022-10-06T00:56:25.452Z,97.09
2022-10-06T00:58:53.263Z,95.79
2022-10-06T01:01:22.459Z,95.94
2022-10-06T01:03:55.519Z,98.03
2022-10-06T01:06:23.168Z,98.81
2022-10-06T01:08:52.851Z,98.05
2022-10-06T01:11:21.035Z,98.17
2022-10-06T01:13:49.740Z,98.05
2022-10-06T01:16:21.388Z,98.19
2022-10-06T01:18:53.275Z,96.72
2022-10-06T01:21:24.724Z,96.49
2022-10-06T01:23:54.550Z,97.18
2022-10-06T01:26:24.736Z,99.50
2022-10-06T01:28:52.838Z,99.27
2022-10-06T01:31:20.804Z,98.21
2022-10-06T01:33:51.920Z,97.70
2022-10-06T01:36:19.714Z,98.13
2022-10-06T01:38:47.470Z,97.92
2022-10-06T01:41:16.666Z,97.86
2022-10-06T01:43:44.360Z,97.20
2022-10-06T01:46:11.971Z,97.68
2022-10-06T01:48:39.866Z,98.69
2022-10-06T01:51:07.713Z,99.61
2022-10-06T01:53:35.775Z,99.50
2022-10-06T01:56:04.813Z,98.98
2022-10-06T01:58:33.967Z,99.76
2022-10-06T02:01:05.212Z,100.00
2022-10-06T02:03:34.449Z,100.00
2022-10-06T02:06:02.450Z,100.00
2022-10-06T02:08:32.370Z,100.00
2022-10-06T02:11:04.190Z,100.00
2022-10-06T02:13:33.066Z,100.00
2022-10-06T02:16:01.683Z,100.00
2022-10-06T02:18:29.720Z,100.00
2022-10-06T02:20:57.814Z,100.00
2022-10-06T02:23:25.577Z,100.00
2022-10-06T02:25:58.953Z,100.00
2022-10-06T02:28:27.165Z,100.00
2022-10-06T02:31:00.602Z,100.00
2022-10-06T02:33:28.694Z,100.00
2022-10-06T02:35:56.578Z,100.00
2022-10-06T02:38:25.206Z,100.00
2022-10-06T02:40:53.371Z,100.00
2022-10-06T02:43:21.429Z,100.00
2022-10-06T02:45:58.558Z,100.00
2022-10-06T02:48:27.367Z,100.00
2022-10-06T02:50:56.726Z,100.00
2022-10-06T02:53:24.795Z,100.00
2022-10-06T02:55:58.237Z,100.00
2022-10-06T02:58:26.610Z,100.00
2022-10-06T03:00:56.015Z,100.00
2022-10-06T03:03:23.811Z,100.00
2022-10-06T03:05:59.460Z,100.00
2022-10-06T03:08:27.650Z,100.00
2022-10-06T03:11:00.692Z,100.00
2022-10-06T03:13:30.856Z,100.00
2022-10-06T03:15:59.826Z,100.00
2022-10-06T03:18:28.440Z,100.00
2022-10-06T03:21:00.624Z,100.00
2022-10-06T03:23:29.969Z,100.00
2022-10-06T03:25:58.324Z,100.00
2022-10-06T03:28:26.221Z,100.00
2022-10-06T03:30:54.501Z,100.00
2022-10-06T03:33:23.818Z,100.00
2022-10-06T03:35:59.174Z,100.00
2022-10-06T03:38:27.399Z,100.00
2022-10-06T03:41:02.774Z,100.00
2022-10-06T03:43:30.435Z,100.00
2022-10-06T03:45:58.759Z,100.00
2022-10-06T03:48:28.450Z,100.00
2022-10-06T03:50:57.469Z,100.00
2022-10-06T03:53:26.581Z,100.00
2022-10-06T03:56:01.734Z,100.00
2022-10-06T03:58:30.711Z,100.00
2022-10-06T04:01:00.781Z,100.00
2022-10-06T04:03:30.070Z,100.00
2022-10-06T04:06:02.358Z,100.00
2022-10-06T04:08:31.751Z,100.00
2022-10-06T04:11:05.290Z,100.00
2022-10-06T04:13:33.949Z,100.00
2022-10-06T04:16:10.265Z,100.00
2022-10-06T04:18:45.943Z,100.00
2022-10-06T04:21:13.715Z,100.00
2022-10-06T04:23:41.783Z,100.00
2022-10-06T04:26:12.559Z,100.00
2022-10-06T04:28:41.457Z,100.00
2022-10-06T04:31:14.099Z,100.00
2022-10-06T04:33:48.198Z,100.00
2022-10-06T04:36:17.391Z,100.00
2022-10-06T04:38:44.948Z,100.00
2022-10-06T04:41:15.091Z,100.00
2022-10-06T04:43:43.019Z,100.00
2022-10-06T04:46:41.687Z,100.00
2022-10-06T04:49:06.626Z,100.00
2022-10-06T04:51:34.196Z,100.00
2022-10-06T04:54:01.937Z,100.00
2022-10-06T04:56:31.428Z,100.00
2022-10-06T04:58:59.410Z,100.00
2022-10-06T05:01:30.862Z,100.00
2022-10-06T05:04:01.923Z,100.00
2022-10-06T05:06:35.219Z,100.00
2022-10-06T05:09:05.830Z,100.00
2022-10-06T05:11:33.810Z,100.00
2022-10-06T05:14:01.409Z,100.00
2022-10-06T05:16:31.391Z,100.00
2022-10-06T05:19:00.477Z,100.00
2022-10-06T05:21:29.600Z,100.00
2022-10-06T05:23:59.410Z,100.00
2022-10-06T05:26:29.042Z,100.00
2022-10-06T05:28:56.919Z,100.00
2022-10-06T05:31:27.285Z,100.00
2022-10-06T05:33:55.311Z,100.00
2022-10-06T05:36:25.099Z,100.00
2022-10-06T05:38:52.827Z,100.00
2022-10-06T05:41:23.917Z,100.00
2022-10-06T05:43:52.370Z,100.00
2022-10-06T05:46:23.037Z,100.00
2022-10-06T05:48:53.081Z,100.00
2022-10-06T05:51:21.440Z,100.00
2022-10-06T05:53:49.359Z,100.00
2022-10-06T05:56:21.056Z,100.00
2022-10-06T05:58:51.779Z,100.00
2022-10-06T06:01:22.323Z,100.00
2022-10-06T06:03:51.233Z,100.00
2022-10-06T06:06:21.487Z,100.00
2022-10-06T06:08:52.420Z,100.00
2022-10-06T06:11:20.121Z,100.00
2022-10-06T06:13:49.305Z,100.00
2022-10-06T06:16:16.913Z,100.00
2022-10-06T06:18:44.661Z,99.33
2022-10-06T06:21:12.480Z,96.81
2022-10-06T06:23:41.737Z,94.38
2022-10-06T06:26:11.447Z,93.88
2022-10-06T06:28:39.750Z,94.37
2022-10-06T06:31:11.953Z,95.28
2022-10-06T06:33:42.247Z,95.91
2022-10-06T06:36:14.146Z,95.88
2022-10-06T06:38:42.255Z,97.44
2022-10-06T06:41:17.673Z,97.94
2022-10-06T06:43:46.738Z,97.74
2022-10-06T06:46:17.485Z,97.37
2022-10-06T06:48:47.068Z,98.22
2022-10-06T06:51:14.756Z,98.29
2022-10-06T06:53:42.386Z,98.91
2022-10-06T06:56:10.291Z,99.25
2022-10-06T06:58:38.203Z,100.00
2022-10-06T07:01:08.335Z,99.76
2022-10-06T07:03:56.696Z,99.39
2022-10-06T07:06:28.137Z,99.04
2022-10-06T07:08:58.940Z,97.91
2022-10-06T07:11:30.561Z,96.85
2022-10-06T07:14:01.041Z,97.04
2022-10-06T07:16:30.171Z,96.12
2022-10-06T07:19:02.550Z,95.07
2022-10-06T07:21:30.658Z,95.87
2022-10-06T07:23:59.014Z,96.47
2022-10-06T07:26:26.954Z,95.60
2022-10-06T07:28:54.525Z,93.14
2022-10-06T07:31:22.611Z,90.08
2022-10-06T07:33:51.288Z,87.01
2022-10-06T07:36:20.968Z,84.85
2022-10-06T07:38:48.863Z,84.22
2022-10-06T07:41:20.646Z,84.53
2022-10-06T07:43:48.801Z,83.60
2022-10-06T07:46:16.830Z,80.40
2022-10-06T07:48:45.050Z,80.69
2022-10-06T07:51:14.887Z,76.58
2022-10-06T07:53:44.268Z,75.84
2022-10-06T07:56:12.221Z,74.51
2022-10-06T07:58:40.341Z,68.71
2022-10-06T08:01:09.962Z,68.04
2022-10-06T08:03:38.543Z,65.81
2022-10-06T08:06:07.178Z,66.42
2022-10-06T08:08:35.291Z,66.83
2022-10-06T08:11:08.316Z,70.79
2022-10-06T08:13:36.651Z,66.87
2022-10-06T08:16:05.894Z,67.65
2022-10-06T08:18:46.130Z,65.49
2022-10-06T08:21:16.437Z,62.89
2022-10-06T08:23:45.975Z,63.17
2022-10-06T08:26:16.477Z,62.25
2022-10-06T08:28:45.732Z,62.05
2022-10-06T08:31:14.255Z,60.19
2022-10-06T08:33:42.803Z,61.35
2022-10-06T08:36:12.278Z,61.01
2022-10-06T08:38:41.346Z,63.05
2022-10-06T08:41:26.713Z,61.19
2022-10-06T08:44:00.156Z,60.76
2022-10-06T08:46:34.867Z,59.34
2022-10-06T08:49:03.368Z,61.33
2022-10-06T08:51:49.339Z,62.11
2022-10-06T08:54:25.034Z,61.37
2022-10-06T08:57:01.549Z,61.23
2022-10-06T08:59:33.219Z,58.00
2022-10-06T09:02:01.290Z,56.99
2022-10-06T09:04:31.191Z,57.76
2022-10-06T09:07:05.387Z,55.83
2022-10-06T09:09:50.256Z,57.35
2022-10-06T09:12:31.251Z,55.01
2022-10-06T09:15:16.568Z,53.43
2022-10-06T09:17:48.549Z,52.21
2022-10-06T09:20:18.619Z,54.23
2022-10-06T09:22:49.661Z,53.18
2022-10-06T09:25:20.556Z,52.53
2022-10-06T09:27:54.145Z,51.98
2022-10-06T09:30:22.185Z,54.79
2022-10-06T09:32:54.893Z,54.45
2022-10-06T09:35:24.791Z,53.20
2022-10-06T09:37:54.176Z,53.42
2022-10-06T09:40:38.678Z,55.29
2022-10-06T09:43:20.171Z,52.48
2022-10-06T09:45:50.962Z,52.19
2022-10-06T09:48:24.710Z,52.43
2022-10-06T09:51:18.505Z,50.06
2022-10-06T09:54:08.190Z,51.36
2022-10-06T09:56:40.851Z,50.07
2022-10-06T09:59:20.458Z,51.41
2022-10-06T10:01:53.165Z,52.63
2022-10-06T10:04:25.292Z,50.20
2022-10-06T10:06:53.936Z,49.77
2022-10-06T10:09:27.313Z,52.79
2022-10-06T10:12:11.335Z,49.82
2022-10-06T10:14:41.132Z,51.13
2022-10-06T10:17:15.612Z,49.57
2022-10-06T10:19:43.619Z,52.42
2022-10-06T10:22:21.128Z,52.67
2022-10-06T10:25:01.923Z,52.43
2022-10-06T10:27:40.060Z,49.61
2022-10-06T10:30:11.715Z,49.58
2022-10-06T10:32:58.733Z,49.83
2022-10-06T10:35:29.360Z,50.06
2022-10-06T10:38:03.796Z,48.23
2022-10-06T10:40:36.065Z,50.05
2022-10-06T10:43:17.816Z,50.33
2022-10-06T10:45:51.390Z,49.86
2022-10-06T10:48:24.478Z,51.63
2022-10-06T10:51:00.534Z,48.39
2022-10-06T10:53:41.849Z,50.65
2022-10-06T10:56:15.504Z,49.29
2022-10-06T10:58:47.701Z,48.67
2022-10-06T11:01:30.559Z,50.07
2022-10-06T11:03:59.871Z,49.46
2022-10-06T11:06:45.961Z,47.38
2022-10-06T11:09:17.742Z,48.88
2022-10-06T11:12:02.119Z,51.23
2022-10-06T11:14:50.821Z,48.84
2022-10-06T11:17:33.548Z,51.81
2022-10-06T11:20:10.875Z,50.94
2022-10-06T11:22:44.809Z,48.83
2022-10-06T11:25:21.927Z,48.81
2022-10-06T11:27:59.061Z,49.95
2022-10-06T11:30:27.155Z,46.23
2022-10-06T11:33:11.541Z,51.42
2022-10-06T11:35:44.450Z,46.30
2022-10-06T11:38:21.680Z,47.85
2022-10-06T11:41:09.394Z,45.87
2022-10-06T11:43:46.061Z,46.18
2022-10-06T11:46:32.448Z,45.28
2022-10-06T11:49:48.628Z,46.31
2022-10-06T11:52:48.948Z,46.93
2022-10-06T11:55:21.159Z,47.54
2022-10-06T11:58:23.376Z,46.60
2022-10-06T12:00:54.536Z,49.14
2022-10-06T12:04:11.977Z,50.64
2022-10-06T12:07:01.502Z,50.10
2022-10-06T12:09:33.138Z,50.15
2022-10-06T12:13:05.759Z,49.50
2022-10-06T12:19:12.118Z,50.72
2022-10-06T12:21:50.402Z,50.83
2022-10-06T12:24:27.293Z,50.23
2022-10-06T12:27:09.990Z,48.69
2022-10-06T12:29:45.882Z,48.11
2022-10-06T12:32:28.738Z,48.74
2022-10-06T12:35:02.318Z,51.20
2022-10-06T12:37:41.004Z,51.39
2022-10-06T12:40:43.325Z,49.76
2022-10-06T12:43:35.403Z,49.32
2022-10-06T12:46:11.911Z,48.61
2022-10-06T12:48:46.167Z,51.94
2022-10-06T12:51:24.532Z,51.84
2022-10-06T12:54:02.956Z,50.45
2022-10-06T12:56:32.297Z,50.23
2022-10-06T12:59:19.126Z,51.83
2022-10-06T13:01:47.762Z,51.06
2022-10-06T13:04:38.376Z,50.71
2022-10-06T13:07:15.193Z,49.99
2022-10-06T13:09:44.338Z,50.91
2022-10-06T13:12:25.973Z,50.20
2022-10-06T13:15:14.106Z,51.04
2022-10-06T13:17:46.136Z,52.97
2022-10-06T13:20:36.362Z,50.98
2022-10-06T13:23:27.233Z,50.68
2022-10-06T13:25:57.144Z,49.37
2022-10-06T13:28:46.339Z,49.82
2022-10-06T13:31:21.062Z,51.10
2022-10-06T13:33:51.766Z,49.34
2022-10-06T13:36:19.872Z,50.33
2022-10-06T13:38:47.719Z,50.19
2022-10-06T13:41:24.136Z,51.43
2022-10-06T13:43:54.779Z,51.65
2022-10-06T13:46:27.286Z,51.57
2022-10-06T13:48:58.211Z,51.54
2022-10-06T13:51:29.121Z,52.16
2022-10-06T13:53:57.956Z,51.45
2022-10-06T13:56:35.120Z,50.88
2022-10-06T13:59:30.249Z,50.92
2022-10-06T14:02:01.807Z,52.81
2022-10-06T14:04:29.530Z,50.64
2022-10-06T14:07:01.599Z,50.68
2022-10-06T14:09:31.095Z,52.04
2022-10-06T14:12:03.910Z,51.00
2022-10-06T14:14:33.026Z,52.33
2022-10-06T14:17:02.643Z,53.03
2022-10-06T14:19:33.639Z,56.75
2022-10-06T14:22:02.253Z,54.87
2022-10-06T14:24:30.184Z,54.67
2022-10-06T14:27:02.460Z,54.40
2022-10-06T14:29:30.555Z,55.55
2022-10-06T14:32:09.888Z,55.21
2022-10-06T14:34:38.081Z,55.67
2022-10-06T14:37:05.725Z,55.36
2022-10-06T14:39:34.579Z,56.00
2022-10-06T14:42:02.127Z,58.33
2022-10-06T14:44:30.243Z,57.37
2022-10-06T14:46:59.809Z,57.13
2022-10-06T14:49:29.061Z,57.93
2022-10-06T14:51:56.702Z,57.18
2022-10-06T14:54:24.571Z,57.83
2022-10-06T14:56:52.216Z,58.93
2022-10-06T14:59:21.622Z,59.91
2022-10-06T15:01:49.518Z,60.73
2022-10-06T15:04:19.201Z,61.81
2022-10-06T15:06:48.243Z,62.30
2022-10-06T15:09:16.315Z,62.99
2022-10-06T15:11:45.638Z,63.82
2022-10-06T15:14:13.290Z,63.16
2022-10-06T15:16:41.203Z,64.55
2022-10-06T15:19:10.703Z,63.59
2022-10-06T15:21:39.819Z,65.19
2022-10-06T15:24:12.787Z,64.84
2022-10-06T15:26:40.542Z,65.66
2022-10-06T15:29:08.227Z,65.42
2022-10-06T15:31:37.762Z,66.18
2022-10-06T15:34:06.784Z,66.84
2022-10-06T15:36:35.818Z,68.01
2022-10-06T15:39:06.361Z,67.89
2022-10-06T15:41:36.673Z,68.35
2022-10-06T15:44:06.056Z,68.67
2022-10-06T15:46:36.237Z,69.73
2022-10-06T15:49:05.979Z,69.81
2022-10-06T15:51:35.662Z,70.80
2022-10-06T15:54:03.616Z,71.57
2022-10-06T15:56:32.160Z,71.60
2022-10-06T15:59:01.475Z,73.19
2022-10-06T16:01:40.300Z,73.77
2022-10-06T16:04:14.755Z,74.34
2022-10-06T16:06:42.514Z,74.27
2022-10-06T16:09:11.991Z,74.11
2022-10-06T16:11:39.738Z,74.62
2022-10-06T16:14:10.097Z,74.67
2022-10-06T16:16:41.255Z,75.17
2022-10-06T16:19:12.577Z,75.76
2022-10-06T16:21:41.521Z,76.38
2022-10-06T16:24:09.450Z,76.73
2022-10-06T16:26:37.716Z,76.94
2022-10-06T16:29:05.410Z,77.83
2022-10-06T16:31:34.603Z,77.62
2022-10-06T16:34:02.675Z,77.60
2022-10-06T16:36:30.726Z,78.13
2022-10-06T16:38:58.335Z,78.40
2022-10-06T16:41:26.149Z,79.22
2022-10-06T16:43:53.931Z,79.59
2022-10-06T16:46:23.229Z,80.10
2022-10-06T16:48:54.430Z,79.75
2022-10-06T16:51:23.435Z,79.29
2022-10-06T16:53:52.771Z,80.29
2022-10-06T16:56:22.376Z,80.16
2022-10-06T16:58:51.715Z,80.56
2022-10-06T17:01:20.529Z,80.36
2022-10-06T17:03:48.492Z,81.53
2022-10-06T17:06:18.276Z,80.86
2022-10-06T17:08:47.302Z,81.37
2022-10-06T17:11:19.932Z,81.24
2022-10-06T17:13:49.039Z,81.81
2022-10-06T17:16:19.617Z,82.08
2022-10-06T17:18:52.637Z,82.51
2022-10-06T17:21:44.208Z,82.70
2022-10-06T17:24:10.249Z,82.56
2022-10-06T17:26:39.957Z,82.74
2022-10-06T17:29:11.655Z,83.63
2022-10-06T17:31:40.952Z,83.60
2022-10-06T17:34:10.529Z,83.77
2022-10-06T17:36:40.794Z,84.38
2022-10-06T17:39:11.246Z,83.74
2022-10-06T17:41:40.771Z,83.64
2022-10-06T17:44:11.488Z,84.02
2022-10-06T17:46:41.667Z,85.21
2022-10-06T17:49:11.523Z,85.11
2022-10-06T17:51:44.031Z,85.14
2022-10-06T17:54:13.953Z,85.22
2022-10-06T17:56:42.102Z,85.28
2022-10-06T17:59:13.661Z,85.14
2022-10-06T18:01:41.152Z,85.35
2022-10-06T18:04:08.883Z,86.09
2022-10-06T18:06:36.703Z,85.84
2022-10-06T18:09:07.029Z,85.30
2022-10-06T18:11:35.016Z,86.01
2022-10-06T18:14:05.272Z,86.46
2022-10-06T18:16:35.312Z,87.38
2022-10-06T18:19:05.121Z,86.66
2022-10-06T18:21:34.825Z,86.72
2022-10-06T18:24:02.763Z,87.17
2022-10-06T18:26:31.892Z,87.01
2022-10-06T18:28:59.607Z,87.10
2022-10-06T18:31:27.465Z,87.25
2022-10-06T18:36:43.433Z,87.17
2022-10-06T18:39:12.250Z,87.19
2022-10-06T18:41:42.516Z,88.17
2022-10-06T18:44:11.089Z,87.36
2022-10-06T18:46:39.399Z,90.46
2022-10-06T18:49:09.839Z,90.13
2022-10-06T18:51:39.178Z,88.95
2022-10-06T18:54:09.547Z,88.56
2022-10-06T18:56:38.224Z,89.44
2022-10-06T18:59:09.401Z,89.66
2022-10-06T19:01:39.430Z,90.32
2022-10-06T19:04:07.608Z,91.76
2022-10-06T19:06:36.161Z,90.89
2022-10-06T19:09:05.173Z,90.31
2022-10-06T19:11:34.648Z,90.48
2022-10-06T19:14:05.379Z,91.09
2022-10-06T19:16:37.285Z,91.12
2022-10-06T19:19:07.387Z,92.15
2022-10-06T19:21:35.430Z,91.72
2022-10-06T19:24:03.832Z,93.30
2022-10-06T19:26:31.600Z,92.39
2022-10-06T19:29:00.678Z,91.46
2022-10-06T19:31:28.889Z,92.02
2022-10-06T19:33:58.969Z,92.84
2022-10-06T19:36:27.418Z,93.02
2022-10-06T19:38:55.393Z,93.95
2022-10-06T19:41:23.187Z,93.22
2022-10-06T19:43:50.841Z,93.81
2022-10-06T19:46:18.908Z,94.51
2022-10-06T19:48:52.700Z,93.24
2022-10-06T19:51:22.339Z,95.32
2022-10-06T19:53:50.688Z,93.40
2022-10-06T19:56:21.199Z,94.26
2022-10-06T19:58:48.842Z,94.50
2022-10-06T20:01:18.312Z,96.47
2022-10-06T20:03:46.196Z,97.16
2022-10-06T20:06:14.865Z,97.37
2022-10-06T20:08:45.798Z,98.44
2022-10-06T20:11:15.533Z,97.25
2022-10-06T20:13:43.847Z,95.84
2022-10-06T20:16:15.256Z,97.06
2022-10-06T20:18:48.878Z,97.50
2022-10-06T20:21:19.604Z,96.61
2022-10-06T20:23:50.848Z,94.64
2022-10-06T20:26:22.338Z,95.13
2022-10-06T20:28:50.317Z,95.86
2022-10-06T20:31:20.081Z,96.49
2022-10-06T20:33:48.359Z,97.33
2022-10-06T20:36:16.469Z,98.49
2022-10-06T20:38:44.940Z,96.36
2022-10-06T20:41:17.452Z,95.64
2022-10-06T20:43:45.366Z,96.49
2022-10-06T20:46:13.197Z,96.06
2022-10-06T20:48:41.930Z,94.89
2022-10-06T20:51:10.391Z,97.26
2022-10-06T20:53:39.249Z,95.83
2022-10-06T20:56:07.949Z,96.06
2022-10-06T20:58:37.631Z,96.14
2022-10-06T21:01:07.915Z,95.68
2022-10-06T21:03:36.564Z,95.77
2022-10-06T21:06:04.655Z,97.34
2022-10-06T21:08:32.534Z,98.24
2022-10-06T21:11:01.760Z,97.42
2022-10-06T21:13:30.424Z,98.54
2022-10-06T21:16:00.053Z,96.80
2022-10-06T21:18:28.850Z,96.04
2022-10-06T21:20:58.839Z,97.11
2022-10-06T21:23:27.548Z,96.10
2022-10-06T21:25:55.290Z,95.43
2022-10-06T21:28:23.585Z,96.04
2022-10-06T21:30:52.395Z,97.26
2022-10-06T21:33:22.199Z,99.07
2022-10-06T21:35:59.049Z,97.09
2022-10-06T21:38:26.895Z,97.46
2022-10-06T21:40:55.279Z,98.68
2022-10-06T21:43:23.365Z,97.77
2022-10-06T21:46:00.936Z,96.89
2022-10-06T21:48:40.585Z,98.78
2022-10-06T21:51:08.330Z,98.37
2022-10-06T21:53:35.926Z,98.53
2022-10-06T21:56:03.711Z,96.36
2022-10-06T21:58:31.483Z,96.66
2022-10-06T22:01:02.017Z,97.41
2022-10-06T22:03:29.956Z,98.51
2022-10-06T22:06:03.531Z,99.26
2022-10-06T22:08:31.719Z,100.00
2022-10-06T22:11:03.670Z,99.96
2022-10-06T22:13:31.294Z,100.00
2022-10-06T22:16:02.642Z,97.90
2022-10-06T22:18:33.064Z,98.12
2022-10-06T22:21:01.230Z,99.03
2022-10-06T22:23:30.432Z,99.85
2022-10-06T22:25:58.409Z,98.89
2022-10-06T22:28:26.022Z,99.09
2022-10-06T22:31:02.294Z,99.55
2022-10-06T22:33:30.456Z,100.00
2022-10-06T22:35:58.552Z,97.97
2022-10-06T22:38:26.214Z,97.67
2022-10-06T22:40:59.395Z,99.17
2022-10-06T22:43:27.135Z,98.77
2022-10-06T22:45:54.699Z,96.67
2022-10-06T22:48:22.494Z,96.62
2022-10-06T22:50:50.586Z,96.61
2022-10-06T22:53:19.504Z,99.05
2022-10-06T22:55:47.394Z,98.66
2022-10-06T22:58:17.044Z,97.57
2022-10-06T23:00:45.417Z,96.43
2022-10-06T23:03:13.102Z,99.28
2022-10-06T23:05:41.102Z,98.59
2022-10-06T23:08:08.896Z,100.00
2022-10-06T23:10:37.534Z,100.00
2022-10-06T23:13:05.305Z,100.00
2022-10-06T23:15:35.456Z,100.00
2022-10-06T23:18:03.311Z,100.00
2022-10-06T23:20:32.979Z,100.00
2022-10-06T23:23:00.648Z,99.57
2022-10-06T23:25:28.273Z,97.93
2022-10-06T23:27:56.160Z,98.72
2022-10-06T23:30:23.867Z,98.33
2022-10-06T23:32:52.970Z,97.47
2022-10-06T23:35:20.970Z,98.32
2022-10-06T23:37:48.664Z,98.62
2022-10-06T23:40:17.135Z,99.61
2022-10-06T23:42:45.278Z,99.98
2022-10-06T23:45:12.958Z,100.00
2022-10-06T23:47:40.503Z,99.19
2022-10-06T23:50:09.990Z,97.80
2022-10-06T23:52:38.095Z,98.66
2022-10-06T23:55:06.493Z,98.20
2022-10-06T23:57:34.604Z,96.79
